sensor_id;sensor_type;location;lat;lon;timestamp;P1;durP1;ratioP1;P2;durP2;ratioP2
11653;SDS011;5883;48.818;9.114;2023-03-01T00:01:45;24.10;;;14.10;;
11653;SDS011;5883;48.818;9.114;2023-03-01T00:04:11;21.37;;;13.07;;
11653;SDS011;5883;48.818;9.114;2023-03-01T00:06:38;18.97;;;12.13;;
11653;SDS011;5883;48.818;9.114;2023-03-01T00:09:06;21.07;;;13.00;;
11653;SDS011;5883;48.818;9.114;2023-03-01T00:11:32;21.90;;;12.37;;
11653;SDS011;5883;48.818;9.114;2023-03-01T00:13:59;18.93;;;11.70;;
11653;SDS011;5883;48.818;9.114;2023-03-01T00:16:28;18.47;;;12.03;;
11653;SDS011;5883;48.818;9.114;2023-03-01T00:18:55;20.13;;;12.10;;
11653;SDS011;5883;48.818;9.114;2023-03-01T00:21:21;18.07;;;11.63;;
11653;SDS011;5883;48.818;9.114;2023-03-01T00:23:48;19.33;;;12.13;;
11653;SDS011;5883;48.818;9.114;2023-03-01T00:26:17;17.30;;;12.00;;
11653;SDS011;5883;48.818;9.114;2023-03-01T00:28:44;18.57;;;11.80;;
11653;SDS011;5883;48.818;9.114;2023-03-01T00:31:11;19.37;;;11.77;;
11653;SDS011;5883;48.818;9.114;2023-03-01T00:33:38;20.50;;;12.33;;
11653;SDS011;5883;48.818;9.114;2023-03-01T00:36:05;19.53;;;12.60;;
11653;SDS011;5883;48.818;9.114;2023-03-01T00:38:34;17.37;;;11.77;;
11653;SDS011;5883;48.818;9.114;2023-03-01T00:41:02;19.47;;;11.77;;
11653;SDS011;5883;48.818;9.114;2023-03-01T00:43:30;18.10;;;11.90;;
11653;SDS011;5883;48.818;9.114;2023-03-01T00:46:01;19.53;;;12.07;;
11653;SDS011;5883;48.818;9.114;2023-03-01T00:48:28;19.33;;;12.73;;
11653;SDS011;5883;48.818;9.114;2023-03-01T00:50:54;20.07;;;12.50;;
11653;SDS011;5883;48.818;9.114;2023-03-01T00:53:21;21.90;;;13.03;;
11653;SDS011;5883;48.818;9.114;2023-03-01T00:55:47;22.10;;;12.47;;
11653;SDS011;5883;48.818;9.114;2023-03-01T00:58:14;19.73;;;12.50;;
11653;SDS011;5883;48.818;9.114;2023-03-01T01:00:41;19.93;;;12.17;;
11653;SDS011;5883;48.818;9.114;2023-03-01T01:03:08;19.37;;;11.50;;
11653;SDS011;5883;48.818;9.114;2023-03-01T01:05:34;19.93;;;12.90;;
11653;SDS011;5883;48.818;9.114;2023-03-01T01:08:01;19.60;;;12.17;;
11653;SDS011;5883;48.818;9.114;2023-03-01T01:10:27;20.20;;;11.87;;
11653;SDS011;5883;48.818;9.114;2023-03-01T01:12:53;20.70;;;11.37;;
11653;SDS011;5883;48.818;9.114;2023-03-01T01:15:20;21.83;;;12.50;;
11653;SDS011;5883;48.818;9.114;2023-03-01T01:17:47;23.33;;;12.67;;
11653;SDS011;5883;48.818;9.114;2023-03-01T01:20:14;20.80;;;12.57;;
11653;SDS011;5883;48.818;9.114;2023-03-01T01:22:40;19.67;;;11.80;;
11653;SDS011;5883;48.818;9.114;2023-03-01T01:25:07;20.43;;;11.90;;
11653;SDS011;5883;48.818;9.114;2023-03-01T01:27:34;16.67;;;12.10;;
11653;SDS011;5883;48.818;9.114;2023-03-01T01:30:00;20.03;;;12.27;;
11653;SDS011;5883;48.818;9.114;2023-03-01T01:32:26;17.83;;;11.60;;
11653;SDS011;5883;48.818;9.114;2023-03-01T01:34:54;18.27;;;12.50;;
11653;SDS011;5883;48.818;9.114;2023-03-01T01:37:21;16.97;;;11.43;;
11653;SDS011;5883;48.818;9.114;2023-03-01T01:39:47;18.43;;;11.70;;
11653;SDS011;5883;48.818;9.114;2023-03-01T01:42:14;18.97;;;11.40;;
11653;SDS011;5883;48.818;9.114;2023-03-01T01:44:42;17.90;;;12.13;;
11653;SDS011;5883;48.818;9.114;2023-03-01T01:47:11;18.60;;;11.50;;
11653;SDS011;5883;48.818;9.114;2023-03-01T01:49:40;22.03;;;12.33;;
11653;SDS011;5883;48.818;9.114;2023-03-01T01:52:09;22.73;;;12.53;;
11653;SDS011;5883;48.818;9.114;2023-03-01T01:54:39;21.90;;;12.87;;
11653;SDS011;5883;48.818;9.114;2023-03-01T01:57:07;20.10;;;12.07;;
11653;SDS011;5883;48.818;9.114;2023-03-01T01:59:34;19.43;;;11.63;;
11653;SDS011;5883;48.818;9.114;2023-03-01T02:02:02;15.17;;;10.50;;
11653;SDS011;5883;48.818;9.114;2023-03-01T02:04:29;19.13;;;12.37;;
11653;SDS011;5883;48.818;9.114;2023-03-01T02:06:58;23.20;;;12.87;;
11653;SDS011;5883;48.818;9.114;2023-03-01T02:09:27;18.60;;;12.30;;
11653;SDS011;5883;48.818;9.114;2023-03-01T02:11:54;20.27;;;12.43;;
11653;SDS011;5883;48.818;9.114;2023-03-01T02:14:20;20.10;;;12.10;;
11653;SDS011;5883;48.818;9.114;2023-03-01T02:16:46;18.03;;;11.70;;
11653;SDS011;5883;48.818;9.114;2023-03-01T02:19:15;20.87;;;12.63;;
11653;SDS011;5883;48.818;9.114;2023-03-01T02:21:45;20.47;;;12.03;;
11653;SDS011;5883;48.818;9.114;2023-03-01T02:24:17;19.17;;;12.23;;
11653;SDS011;5883;48.818;9.114;2023-03-01T02:26:48;20.97;;;12.00;;
11653;SDS011;5883;48.818;9.114;2023-03-01T02:29:17;19.73;;;12.73;;
11653;SDS011;5883;48.818;9.114;2023-03-01T02:31:43;20.63;;;12.30;;
11653;SDS011;5883;48.818;9.114;2023-03-01T02:34:11;24.33;;;13.20;;
11653;SDS011;5883;48.818;9.114;2023-03-01T02:36:38;19.90;;;12.37;;
11653;SDS011;5883;48.818;9.114;2023-03-01T02:39:07;17.70;;;12.20;;
11653;SDS011;5883;48.818;9.114;2023-03-01T02:41:39;20.17;;;12.67;;
11653;SDS011;5883;48.818;9.114;2023-03-01T02:44:07;17.57;;;11.63;;
11653;SDS011;5883;48.818;9.114;2023-03-01T02:46:41;17.63;;;12.23;;
11653;SDS011;5883;48.818;9.114;2023-03-01T02:49:16;18.33;;;12.20;;
11653;SDS011;5883;48.818;9.114;2023-03-01T02:51:45;17.13;;;11.67;;
11653;SDS011;5883;48.818;9.114;2023-03-01T02:54:16;20.57;;;12.60;;
11653;SDS011;5883;48.818;9.114;2023-03-01T02:56:44;18.07;;;12.00;;
11653;SDS011;5883;48.818;9.114;2023-03-01T02:59:13;20.33;;;12.03;;
11653;SDS011;5883;48.818;9.114;2023-03-01T03:01:40;18.73;;;12.23;;
11653;SDS011;5883;48.818;9.114;2023-03-01T03:04:08;18.07;;;11.40;;
11653;SDS011;5883;48.818;9.114;2023-03-01T03:06:35;18.63;;;12.90;;
11653;SDS011;5883;48.818;9.114;2023-03-01T03:09:01;17.50;;;12.63;;
11653;SDS011;5883;48.818;9.114;2023-03-01T03:11:28;23.33;;;12.93;;
11653;SDS011;5883;48.818;9.114;2023-03-01T03:13:54;19.90;;;12.00;;
11653;SDS011;5883;48.818;9.114;2023-03-01T03:16:21;15.70;;;11.30;;
11653;SDS011;5883;48.818;9.114;2023-03-01T03:18:48;20.47;;;12.07;;
11653;SDS011;5883;48.818;9.114;2023-03-01T03:21:15;21.23;;;12.83;;
11653;SDS011;5883;48.818;9.114;2023-03-01T03:23:42;17.27;;;11.60;;
11653;SDS011;5883;48.818;9.114;2023-03-01T03:26:08;18.53;;;11.30;;
11653;SDS011;5883;48.818;9.114;2023-03-01T03:28:40;17.63;;;12.43;;
11653;SDS011;5883;48.818;9.114;2023-03-01T03:31:06;17.00;;;11.83;;
11653;SDS011;5883;48.818;9.114;2023-03-01T03:33:33;19.97;;;11.20;;
11653;SDS011;5883;48.818;9.114;2023-03-01T03:36:00;20.33;;;12.47;;
11653;SDS011;5883;48.818;9.114;2023-03-01T03:38:27;17.77;;;11.77;;
11653;SDS011;5883;48.818;9.114;2023-03-01T03:40:59;19.77;;;11.90;;
11653;SDS011;5883;48.818;9.114;2023-03-01T03:43:26;17.10;;;11.77;;
11653;SDS011;5883;48.818;9.114;2023-03-01T03:45:52;16.93;;;12.43;;
11653;SDS011;5883;48.818;9.114;2023-03-01T03:48:22;19.00;;;12.27;;
11653;SDS011;5883;48.818;9.114;2023-03-01T03:50:49;18.23;;;12.33;;
11653;SDS011;5883;48.818;9.114;2023-03-01T03:53:18;18.97;;;13.20;;
11653;SDS011;5883;48.818;9.114;2023-03-01T03:55:44;20.70;;;12.63;;
11653;SDS011;5883;48.818;9.114;2023-03-01T03:58:14;18.43;;;11.60;;
11653;SDS011;5883;48.818;9.114;2023-03-01T04:00:42;22.97;;;14.87;;
11653;SDS011;5883;48.818;9.114;2023-03-01T04:03:09;21.13;;;13.10;;
11653;SDS011;5883;48.818;9.114;2023-03-01T04:05:36;19.10;;;13.53;;
11653;SDS011;5883;48.818;9.114;2023-03-01T04:08:02;19.93;;;13.10;;
11653;SDS011;5883;48.818;9.114;2023-03-01T04:10:33;20.63;;;12.47;;
11653;SDS011;5883;48.818;9.114;2023-03-01T04:13:00;19.77;;;12.60;;
11653;SDS011;5883;48.818;9.114;2023-03-01T04:15:26;19.33;;;12.87;;
11653;SDS011;5883;48.818;9.114;2023-03-01T04:17:53;21.60;;;12.67;;
11653;SDS011;5883;48.818;9.114;2023-03-01T04:20:21;18.10;;;12.00;;
11653;SDS011;5883;48.818;9.114;2023-03-01T04:22:50;20.80;;;12.23;;
11653;SDS011;5883;48.818;9.114;2023-03-01T04:25:16;22.43;;;12.30;;
11653;SDS011;5883;48.818;9.114;2023-03-01T04:27:44;19.13;;;11.67;;
11653;SDS011;5883;48.818;9.114;2023-03-01T04:30:11;18.10;;;12.07;;
11653;SDS011;5883;48.818;9.114;2023-03-01T04:32:37;18.13;;;11.63;;
11653;SDS011;5883;48.818;9.114;2023-03-01T04:35:04;20.47;;;13.03;;
11653;SDS011;5883;48.818;9.114;2023-03-01T04:37:30;21.30;;;12.80;;
11653;SDS011;5883;48.818;9.114;2023-03-01T04:39:57;28.37;;;16.87;;
11653;SDS011;5883;48.818;9.114;2023-03-01T04:42:23;39.63;;;20.23;;
11653;SDS011;5883;48.818;9.114;2023-03-01T04:44:51;42.27;;;22.30;;
11653;SDS011;5883;48.818;9.114;2023-03-01T04:47:17;44.00;;;22.83;;
11653;SDS011;5883;48.818;9.114;2023-03-01T04:49:43;37.70;;;19.33;;
11653;SDS011;5883;48.818;9.114;2023-03-01T04:52:10;35.03;;;19.20;;
11653;SDS011;5883;48.818;9.114;2023-03-01T04:54:36;33.20;;;18.20;;
11653;SDS011;5883;48.818;9.114;2023-03-01T04:57:03;32.00;;;18.13;;
11653;SDS011;5883;48.818;9.114;2023-03-01T04:59:29;33.90;;;18.10;;
11653;SDS011;5883;48.818;9.114;2023-03-01T05:01:57;20.10;;;13.83;;
11653;SDS011;5883;48.818;9.114;2023-03-01T05:04:25;21.30;;;14.20;;
11653;SDS011;5883;48.818;9.114;2023-03-01T05:06:52;21.40;;;13.93;;
11653;SDS011;5883;48.818;9.114;2023-03-01T05:09:18;19.70;;;12.90;;
11653;SDS011;5883;48.818;9.114;2023-03-01T05:11:45;23.83;;;13.57;;
11653;SDS011;5883;48.818;9.114;2023-03-01T05:14:11;19.77;;;13.40;;
11653;SDS011;5883;48.818;9.114;2023-03-01T05:16:38;20.50;;;13.07;;
11653;SDS011;5883;48.818;9.114;2023-03-01T05:19:06;19.03;;;12.57;;
11653;SDS011;5883;48.818;9.114;2023-03-01T05:21:36;19.67;;;12.63;;
11653;SDS011;5883;48.818;9.114;2023-03-01T05:24:23;17.33;;;12.17;;
11653;SDS011;5883;48.818;9.114;2023-03-01T05:26:49;21.17;;;12.67;;
11653;SDS011;5883;48.818;9.114;2023-03-01T05:29:17;18.70;;;13.63;;
11653;SDS011;5883;48.818;9.114;2023-03-01T05:31:44;18.07;;;13.67;;
11653;SDS011;5883;48.818;9.114;2023-03-01T05:34:12;20.33;;;13.20;;
11653;SDS011;5883;48.818;9.114;2023-03-01T05:36:38;17.13;;;11.93;;
11653;SDS011;5883;48.818;9.114;2023-03-01T05:39:04;19.10;;;12.13;;
11653;SDS011;5883;48.818;9.114;2023-03-01T05:41:31;18.00;;;12.10;;
11653;SDS011;5883;48.818;9.114;2023-03-01T05:43:57;20.13;;;13.93;;
11653;SDS011;5883;48.818;9.114;2023-03-01T05:46:24;19.00;;;13.17;;
11653;SDS011;5883;48.818;9.114;2023-03-01T05:48:50;19.10;;;12.97;;
11653;SDS011;5883;48.818;9.114;2023-03-01T05:51:18;19.40;;;13.13;;
11653;SDS011;5883;48.818;9.114;2023-03-01T05:53:44;22.07;;;14.07;;
11653;SDS011;5883;48.818;9.114;2023-03-01T05:56:10;20.97;;;13.67;;
11653;SDS011;5883;48.818;9.114;2023-03-01T05:58:37;20.07;;;13.10;;
11653;SDS011;5883;48.818;9.114;2023-03-01T06:01:04;18.63;;;12.73;;
11653;SDS011;5883;48.818;9.114;2023-03-01T06:03:30;17.57;;;12.57;;
11653;SDS011;5883;48.818;9.114;2023-03-01T06:05:56;18.83;;;13.30;;
11653;SDS011;5883;48.818;9.114;2023-03-01T06:08:25;20.70;;;13.03;;
11653;SDS011;5883;48.818;9.114;2023-03-01T06:10:52;17.97;;;12.13;;
11653;SDS011;5883;48.818;9.114;2023-03-01T06:13:18;20.40;;;12.83;;
11653;SDS011;5883;48.818;9.114;2023-03-01T06:15:45;22.23;;;12.50;;
11653;SDS011;5883;48.818;9.114;2023-03-01T06:18:12;16.67;;;12.03;;
11653;SDS011;5883;48.818;9.114;2023-03-01T06:20:38;16.33;;;11.93;;
11653;SDS011;5883;48.818;9.114;2023-03-01T06:23:04;18.10;;;11.63;;
11653;SDS011;5883;48.818;9.114;2023-03-01T06:25:32;18.80;;;13.37;;
11653;SDS011;5883;48.818;9.114;2023-03-01T06:27:58;20.77;;;12.57;;
11653;SDS011;5883;48.818;9.114;2023-03-01T06:30:25;20.03;;;12.37;;
11653;SDS011;5883;48.818;9.114;2023-03-01T06:32:52;20.57;;;13.27;;
11653;SDS011;5883;48.818;9.114;2023-03-01T06:35:26;20.07;;;12.87;;
11653;SDS011;5883;48.818;9.114;2023-03-01T06:37:55;21.57;;;13.60;;
11653;SDS011;5883;48.818;9.114;2023-03-01T06:40:22;18.00;;;12.80;;
11653;SDS011;5883;48.818;9.114;2023-03-01T06:42:50;22.87;;;13.40;;
11653;SDS011;5883;48.818;9.114;2023-03-01T06:45:17;19.40;;;12.83;;
11653;SDS011;5883;48.818;9.114;2023-03-01T06:47:43;19.47;;;13.77;;
11653;SDS011;5883;48.818;9.114;2023-03-01T06:50:10;19.77;;;12.80;;
11653;SDS011;5883;48.818;9.114;2023-03-01T06:52:36;20.47;;;12.90;;
11653;SDS011;5883;48.818;9.114;2023-03-01T06:55:03;20.10;;;12.63;;
11653;SDS011;5883;48.818;9.114;2023-03-01T06:57:29;20.53;;;12.47;;
11653;SDS011;5883;48.818;9.114;2023-03-01T06:59:57;20.23;;;12.77;;
11653;SDS011;5883;48.818;9.114;2023-03-01T07:02:24;17.50;;;12.47;;
11653;SDS011;5883;48.818;9.114;2023-03-01T07:04:50;19.03;;;12.63;;
11653;SDS011;5883;48.818;9.114;2023-03-01T07:07:17;21.50;;;13.17;;
11653;SDS011;5883;48.818;9.114;2023-03-01T07:09:44;21.10;;;12.30;;
11653;SDS011;5883;48.818;9.114;2023-03-01T07:12:10;22.03;;;14.07;;
11653;SDS011;5883;48.818;9.114;2023-03-01T07:14:37;20.13;;;12.93;;
11653;SDS011;5883;48.818;9.114;2023-03-01T07:17:04;21.37;;;13.03;;
11653;SDS011;5883;48.818;9.114;2023-03-01T07:19:31;19.47;;;13.23;;
11653;SDS011;5883;48.818;9.114;2023-03-01T07:21:57;21.03;;;13.83;;
11653;SDS011;5883;48.818;9.114;2023-03-01T07:24:24;20.73;;;13.23;;
11653;SDS011;5883;48.818;9.114;2023-03-01T07:26:50;17.73;;;12.53;;
11653;SDS011;5883;48.818;9.114;2023-03-01T07:29:18;23.87;;;13.43;;
11653;SDS011;5883;48.818;9.114;2023-03-01T07:31:45;19.40;;;13.23;;
11653;SDS011;5883;48.818;9.114;2023-03-01T07:34:13;19.80;;;12.82;;
11653;SDS011;5883;48.818;9.114;2023-03-01T07:36:39;20.73;;;13.10;;
11653;SDS011;5883;48.818;9.114;2023-03-01T07:39:08;22.27;;;14.48;;
11653;SDS011;5883;48.818;9.114;2023-03-01T07:41:34;18.63;;;13.07;;
11653;SDS011;5883;48.818;9.114;2023-03-01T07:44:01;18.02;;;12.55;;
11653;SDS011;5883;48.818;9.114;2023-03-01T07:46:27;19.02;;;13.23;;
11653;SDS011;5883;48.818;9.114;2023-03-01T07:48:53;17.00;;;12.45;;
11653;SDS011;5883;48.818;9.114;2023-03-01T07:51:21;15.77;;;12.40;;
11653;SDS011;5883;48.818;9.114;2023-03-01T07:53:48;18.38;;;12.25;;
11653;SDS011;5883;48.818;9.114;2023-03-01T07:56:15;16.15;;;12.40;;
11653;SDS011;5883;48.818;9.114;2023-03-01T07:58:43;18.23;;;11.85;;
11653;SDS011;5883;48.818;9.114;2023-03-01T08:01:10;17.25;;;12.88;;
11653;SDS011;5883;48.818;9.114;2023-03-01T08:03:37;16.00;;;12.15;;
11653;SDS011;5883;48.818;9.114;2023-03-01T08:06:04;16.10;;;12.13;;
11653;SDS011;5883;48.818;9.114;2023-03-01T08:08:33;14.48;;;11.43;;
11653;SDS011;5883;48.818;9.114;2023-03-01T08:11:00;16.48;;;12.38;;
11653;SDS011;5883;48.818;9.114;2023-03-01T08:13:26;19.75;;;12.27;;
11653;SDS011;5883;48.818;9.114;2023-03-01T08:15:53;17.48;;;11.50;;
11653;SDS011;5883;48.818;9.114;2023-03-01T08:18:20;15.32;;;12.25;;
11653;SDS011;5883;48.818;9.114;2023-03-01T08:20:46;15.30;;;11.80;;
11653;SDS011;5883;48.818;9.114;2023-03-01T08:23:13;15.48;;;11.70;;
11653;SDS011;5883;48.818;9.114;2023-03-01T08:25:41;14.55;;;11.60;;
11653;SDS011;5883;48.818;9.114;2023-03-01T08:28:07;14.88;;;11.35;;
11653;SDS011;5883;48.818;9.114;2023-03-01T08:30:34;16.30;;;11.95;;
11653;SDS011;5883;48.818;9.114;2023-03-01T08:33:00;14.63;;;11.52;;
11653;SDS011;5883;48.818;9.114;2023-03-01T08:35:27;17.50;;;12.63;;
11653;SDS011;5883;48.818;9.114;2023-03-01T08:37:53;16.42;;;12.60;;
11653;SDS011;5883;48.818;9.114;2023-03-01T08:40:19;14.20;;;11.43;;
11653;SDS011;5883;48.818;9.114;2023-03-01T08:42:48;15.68;;;12.15;;
11653;SDS011;5883;48.818;9.114;2023-03-01T08:45:15;15.60;;;11.57;;
11653;SDS011;5883;48.818;9.114;2023-03-01T08:47:43;14.00;;;12.00;;
11653;SDS011;5883;48.818;9.114;2023-03-01T08:50:10;16.35;;;12.02;;
11653;SDS011;5883;48.818;9.114;2023-03-01T08:52:36;15.77;;;11.18;;
11653;SDS011;5883;48.818;9.114;2023-03-01T08:55:03;16.83;;;12.15;;
11653;SDS011;5883;48.818;9.114;2023-03-01T08:57:30;15.18;;;11.95;;
11653;SDS011;5883;48.818;9.114;2023-03-01T08:59:57;17.05;;;12.70;;
11653;SDS011;5883;48.818;9.114;2023-03-01T09:02:24;15.25;;;12.07;;
11653;SDS011;5883;48.818;9.114;2023-03-01T09:04:50;17.23;;;12.43;;
11653;SDS011;5883;48.818;9.114;2023-03-01T09:07:17;15.85;;;12.48;;
11653;SDS011;5883;48.818;9.114;2023-03-01T09:09:43;16.63;;;12.02;;
11653;SDS011;5883;48.818;9.114;2023-03-01T09:12:10;17.27;;;12.38;;
11653;SDS011;5883;48.818;9.114;2023-03-01T09:14:36;15.65;;;12.35;;
11653;SDS011;5883;48.818;9.114;2023-03-01T09:17:05;15.15;;;12.75;;
11653;SDS011;5883;48.818;9.114;2023-03-01T09:19:31;18.63;;;12.85;;
11653;SDS011;5883;48.818;9.114;2023-03-01T09:21:57;16.05;;;13.02;;
11653;SDS011;5883;48.818;9.114;2023-03-01T09:24:24;16.98;;;12.88;;
11653;SDS011;5883;48.818;9.114;2023-03-01T09:26:52;20.52;;;13.05;;
11653;SDS011;5883;48.818;9.114;2023-03-01T09:29:19;16.67;;;12.48;;
11653;SDS011;5883;48.818;9.114;2023-03-01T09:31:45;18.50;;;12.48;;
11653;SDS011;5883;48.818;9.114;2023-03-01T09:34:13;18.75;;;13.30;;
11653;SDS011;5883;48.818;9.114;2023-03-01T09:36:41;18.52;;;12.60;;
11653;SDS011;5883;48.818;9.114;2023-03-01T09:39:07;19.13;;;13.23;;
11653;SDS011;5883;48.818;9.114;2023-03-01T09:41:43;19.95;;;13.43;;
11653;SDS011;5883;48.818;9.114;2023-03-01T09:44:12;18.92;;;13.02;;
11653;SDS011;5883;48.818;9.114;2023-03-01T09:46:43;19.48;;;12.85;;
11653;SDS011;5883;48.818;9.114;2023-03-01T09:49:10;17.17;;;13.13;;
11653;SDS011;5883;48.818;9.114;2023-03-01T09:51:39;16.15;;;12.27;;
11653;SDS011;5883;48.818;9.114;2023-03-01T09:54:06;19.55;;;13.40;;
11653;SDS011;5883;48.818;9.114;2023-03-01T09:56:34;21.42;;;14.15;;
11653;SDS011;5883;48.818;9.114;2023-03-01T09:59:05;23.20;;;13.57;;
11653;SDS011;5883;48.818;9.114;2023-03-01T10:01:38;19.30;;;13.40;;
11653;SDS011;5883;48.818;9.114;2023-03-01T10:04:12;18.25;;;13.82;;
11653;SDS011;5883;48.818;9.114;2023-03-01T10:06:43;19.23;;;13.93;;
11653;SDS011;5883;48.818;9.114;2023-03-01T10:09:12;18.38;;;14.00;;
11653;SDS011;5883;48.818;9.114;2023-03-01T10:11:41;20.13;;;14.02;;
11653;SDS011;5883;48.818;9.114;2023-03-01T10:14:13;17.20;;;13.45;;
11653;SDS011;5883;48.818;9.114;2023-03-01T10:16:42;21.85;;;14.32;;
11653;SDS011;5883;48.818;9.114;2023-03-01T10:19:11;18.48;;;13.52;;
11653;SDS011;5883;48.818;9.114;2023-03-01T10:21:39;20.50;;;13.82;;
11653;SDS011;5883;48.818;9.114;2023-03-01T10:24:10;21.02;;;13.73;;
11653;SDS011;5883;48.818;9.114;2023-03-01T10:26:44;18.90;;;14.00;;
11653;SDS011;5883;48.818;9.114;2023-03-01T10:29:13;21.25;;;14.00;;
11653;SDS011;5883;48.818;9.114;2023-03-01T10:31:41;17.83;;;13.15;;
11653;SDS011;5883;48.818;9.114;2023-03-01T10:34:13;18.48;;;13.60;;
11653;SDS011;5883;48.818;9.114;2023-03-01T10:36:40;19.63;;;13.57;;
11653;SDS011;5883;48.818;9.114;2023-03-01T10:39:13;20.55;;;13.82;;
11653;SDS011;5883;48.818;9.114;2023-03-01T10:41:45;23.60;;;13.88;;
11653;SDS011;5883;48.818;9.114;2023-03-01T10:44:34;17.98;;;13.45;;
11653;SDS011;5883;48.818;9.114;2023-03-01T10:47:00;19.77;;;13.00;;
11653;SDS011;5883;48.818;9.114;2023-03-01T10:49:27;21.55;;;14.15;;
11653;SDS011;5883;48.818;9.114;2023-03-01T10:51:53;18.60;;;13.63;;
11653;SDS011;5883;48.818;9.114;2023-03-01T10:54:22;16.83;;;12.70;;
11653;SDS011;5883;48.818;9.114;2023-03-01T10:56:51;18.48;;;13.63;;
11653;SDS011;5883;48.818;9.114;2023-03-01T10:59:21;17.38;;;13.30;;
11653;SDS011;5883;48.818;9.114;2023-03-01T11:02:00;21.20;;;13.85;;
11653;SDS011;5883;48.818;9.114;2023-03-01T11:04:27;20.67;;;13.38;;
11653;SDS011;5883;48.818;9.114;2023-03-01T11:06:57;16.85;;;13.13;;
11653;SDS011;5883;48.818;9.114;2023-03-01T11:09:25;17.80;;;13.30;;
11653;SDS011;5883;48.818;9.114;2023-03-01T11:11:53;18.88;;;13.60;;
11653;SDS011;5883;48.818;9.114;2023-03-01T11:14:20;18.48;;;14.10;;
11653;SDS011;5883;48.818;9.114;2023-03-01T11:16:48;18.02;;;12.30;;
11653;SDS011;5883;48.818;9.114;2023-03-01T11:19:23;18.70;;;12.50;;
11653;SDS011;5883;48.818;9.114;2023-03-01T11:21:55;17.13;;;12.23;;
11653;SDS011;5883;48.818;9.114;2023-03-01T11:24:23;15.85;;;12.02;;
11653;SDS011;5883;48.818;9.114;2023-03-01T11:26:53;16.70;;;12.40;;
11653;SDS011;5883;48.818;9.114;2023-03-01T11:29:23;15.00;;;12.65;;
11653;SDS011;5883;48.818;9.114;2023-03-01T11:31:52;18.10;;;12.38;;
11653;SDS011;5883;48.818;9.114;2023-03-01T11:34:19;19.38;;;13.02;;
11653;SDS011;5883;48.818;9.114;2023-03-01T11:36:48;15.85;;;12.50;;
11653;SDS011;5883;48.818;9.114;2023-03-01T11:39:17;16.85;;;11.57;;
11653;SDS011;5883;48.818;9.114;2023-03-01T11:41:45;19.27;;;13.13;;
11653;SDS011;5883;48.818;9.114;2023-03-01T11:44:18;17.33;;;11.65;;
11653;SDS011;5883;48.818;9.114;2023-03-01T11:46:51;16.88;;;12.73;;
11653;SDS011;5883;48.818;9.114;2023-03-01T11:52:07;16.42;;;11.90;;
11653;SDS011;5883;48.818;9.114;2023-03-01T11:54:39;16.05;;;12.48;;
11653;SDS011;5883;48.818;9.114;2023-03-01T11:57:11;18.70;;;12.68;;
11653;SDS011;5883;48.818;9.114;2023-03-01T12:02:37;16.85;;;12.18;;
11653;SDS011;5883;48.818;9.114;2023-03-01T12:05:18;16.85;;;11.95;;
11653;SDS011;5883;48.818;9.114;2023-03-01T12:07:51;16.17;;;11.27;;
11653;SDS011;5883;48.818;9.114;2023-03-01T12:10:20;15.50;;;10.85;;
11653;SDS011;5883;48.818;9.114;2023-03-01T12:12:52;18.30;;;11.40;;
11653;SDS011;5883;48.818;9.114;2023-03-01T12:15:33;14.32;;;10.68;;
11653;SDS011;5883;48.818;9.114;2023-03-01T12:18:12;15.95;;;12.02;;
11653;SDS011;5883;48.818;9.114;2023-03-01T12:20:41;16.17;;;12.10;;
11653;SDS011;5883;48.818;9.114;2023-03-01T12:23:18;16.83;;;11.45;;
11653;SDS011;5883;48.818;9.114;2023-03-01T12:25:51;14.57;;;11.18;;
11653;SDS011;5883;48.818;9.114;2023-03-01T12:28:25;19.00;;;13.02;;
11653;SDS011;5883;48.818;9.114;2023-03-01T12:33:52;17.15;;;11.40;;
11653;SDS011;5883;48.818;9.114;2023-03-01T12:36:30;16.45;;;12.43;;
11653;SDS011;5883;48.818;9.114;2023-03-01T12:39:03;16.35;;;11.80;;
11653;SDS011;5883;48.818;9.114;2023-03-01T12:41:34;16.05;;;12.10;;
11653;SDS011;5883;48.818;9.114;2023-03-01T12:44:08;16.15;;;11.90;;
11653;SDS011;5883;48.818;9.114;2023-03-01T12:46:40;15.52;;;11.27;;
11653;SDS011;5883;48.818;9.114;2023-03-01T12:49:10;17.02;;;12.38;;
11653;SDS011;5883;48.818;9.114;2023-03-01T12:51:39;16.70;;;11.57;;
11653;SDS011;5883;48.818;9.114;2023-03-01T12:54:07;15.75;;;11.10;;
11653;SDS011;5883;48.818;9.114;2023-03-01T12:56:37;16.38;;;11.93;;
11653;SDS011;5883;48.818;9.114;2023-03-01T12:59:07;17.75;;;12.55;;
11653;SDS011;5883;48.818;9.114;2023-03-01T13:01:38;16.08;;;12.07;;
11653;SDS011;5883;48.818;9.114;2023-03-01T13:04:08;16.13;;;11.65;;
11653;SDS011;5883;48.818;9.114;2023-03-01T13:06:41;16.27;;;11.43;;
11653;SDS011;5883;48.818;9.114;2023-03-01T13:09:13;15.40;;;12.07;;
11653;SDS011;5883;48.818;9.114;2023-03-01T13:11:41;17.25;;;11.82;;
11653;SDS011;5883;48.818;9.114;2023-03-01T13:16:52;15.88;;;12.43;;
11653;SDS011;5883;48.818;9.114;2023-03-01T13:19:19;16.25;;;11.18;;
11653;SDS011;5883;48.818;9.114;2023-03-01T13:21:48;15.15;;;11.40;;
11653;SDS011;5883;48.818;9.114;2023-03-01T13:24:25;16.02;;;11.00;;
11653;SDS011;5883;48.818;9.114;2023-03-01T13:27:10;15.75;;;12.27;;
11653;SDS011;5883;48.818;9.114;2023-03-01T13:29:43;15.73;;;11.07;;
11653;SDS011;5883;48.818;9.114;2023-03-01T13:32:19;16.77;;;11.63;;
11653;SDS011;5883;48.818;9.114;2023-03-01T13:34:46;16.52;;;11.80;;
11653;SDS011;5883;48.818;9.114;2023-03-01T13:37:24;17.65;;;11.30;;
11653;SDS011;5883;48.818;9.114;2023-03-01T13:39:54;13.95;;;11.18;;
11653;SDS011;5883;48.818;9.114;2023-03-01T13:45:17;18.15;;;11.00;;
11653;SDS011;5883;48.818;9.114;2023-03-01T13:47:45;17.35;;;11.38;;
11653;SDS011;5883;48.818;9.114;2023-03-01T13:50:16;15.02;;;12.05;;
11653;SDS011;5883;48.818;9.114;2023-03-01T13:52:48;16.75;;;12.13;;
11653;SDS011;5883;48.818;9.114;2023-03-01T13:55:16;22.70;;;12.40;;
11653;SDS011;5883;48.818;9.114;2023-03-01T13:57:44;18.95;;;12.60;;
11653;SDS011;5883;48.818;9.114;2023-03-01T14:00:24;17.52;;;12.38;;
11653;SDS011;5883;48.818;9.114;2023-03-01T14:02:59;18.50;;;13.00;;
11653;SDS011;5883;48.818;9.114;2023-03-01T14:05:25;15.43;;;11.35;;
11653;SDS011;5883;48.818;9.114;2023-03-01T14:07:53;16.67;;;12.15;;
11653;SDS011;5883;48.818;9.114;2023-03-01T14:10:20;18.30;;;12.52;;
11653;SDS011;5883;48.818;9.114;2023-03-01T14:12:48;16.85;;;12.70;;
11653;SDS011;5883;48.818;9.114;2023-03-01T14:15:17;18.45;;;12.25;;
11653;SDS011;5883;48.818;9.114;2023-03-01T14:17:49;20.15;;;12.65;;
11653;SDS011;5883;48.818;9.114;2023-03-01T14:20:19;18.20;;;12.55;;
11653;SDS011;5883;48.818;9.114;2023-03-01T14:22:46;24.13;;;12.68;;
11653;SDS011;5883;48.818;9.114;2023-03-01T14:25:20;19.27;;;12.57;;
11653;SDS011;5883;48.818;9.114;2023-03-01T14:27:50;17.15;;;12.75;;
11653;SDS011;5883;48.818;9.114;2023-03-01T14:30:18;18.85;;;11.57;;
11653;SDS011;5883;48.818;9.114;2023-03-01T14:32:51;19.88;;;12.77;;
11653;SDS011;5883;48.818;9.114;2023-03-01T14:35:19;19.95;;;12.90;;
11653;SDS011;5883;48.818;9.114;2023-03-01T14:37:45;18.80;;;13.20;;
11653;SDS011;5883;48.818;9.114;2023-03-01T14:40:21;17.00;;;13.32;;
11653;SDS011;5883;48.818;9.114;2023-03-01T14:42:48;17.13;;;12.95;;
11653;SDS011;5883;48.818;9.114;2023-03-01T14:45:15;18.27;;;13.43;;
11653;SDS011;5883;48.818;9.114;2023-03-01T14:47:43;18.25;;;12.52;;
11653;SDS011;5883;48.818;9.114;2023-03-01T14:50:16;19.85;;;13.23;;
11653;SDS011;5883;48.818;9.114;2023-03-01T14:52:46;19.55;;;11.98;;
11653;SDS011;5883;48.818;9.114;2023-03-01T14:55:15;17.60;;;12.73;;